sensor_id;sensor_type;location;lat;lon;timestamp;pressure;altitude;pressure_sealevel;temperature;humidity
72116;BME280;59991;52.140;5.428;2023-06-04T00:00:18;102273.00;;;13.68;59.87
72116;BME280;59991;52.140;5.428;2023-06-04T00:00:55;102276.53;;;13.68;59.62
72116;BME280;59991;52.140;5.428;2023-06-04T00:01:30;102270.22;;;13.64;59.78
72116;BME280;59991;52.140;5.428;2023-06-04T00:02:04;102272.97;;;13.64;60.01
72116;BME280;59991;52.140;5.428;2023-06-04T00:02:44;102276.84;;;13.63;59.83
72116;BME280;59991;52.140;5.428;2023-06-04T00:03:18;102275.69;;;13.64;60.04
72116;BME280;59991;52.140;5.428;2023-06-04T00:03:53;102269.72;;;13.59;60.21
72116;BME280;59991;52.140;5.428;2023-06-04T00:04:28;102269.72;;;13.59;59.84
72116;BME280;59991;52.140;5.428;2023-06-04T00:05:01;102278.28;;;13.57;60.62
72116;BME280;59991;52.140;5.428;2023-06-04T00:05:35;102271.50;;;13.51;60.25
72116;BME280;59991;52.140;5.428;2023-06-04T00:06:13;102272.66;;;13.50;60.39
72116;BME280;59991;52.140;5.428;2023-06-04T00:06:47;102268.34;;;13.49;60.50
72116;BME280;59991;52.140;5.428;2023-06-04T00:07:21;102277.78;;;13.52;60.42
72116;BME280;59991;52.140;5.428;2023-06-04T00:07:59;102268.34;;;13.49;60.61
72116;BME280;59991;52.140;5.428;2023-06-04T00:08:33;102276.56;;;13.49;61.00
72116;BME280;59991;52.140;5.428;2023-06-04T00:09:13;102279.72;;;13.51;60.26
72116;BME280;59991;52.140;5.428;2023-06-04T00:09:47;102267.91;;;13.47;61.08
72116;BME280;59991;52.140;5.428;2023-06-04T00:10:28;102272.66;;;13.50;60.73
72116;BME280;59991;52.140;5.428;2023-06-04T00:11:08;102275.75;;;13.48;60.76
72116;BME280;59991;52.140;5.428;2023-06-04T00:11:48;102271.81;;;13.46;61.00
72116;BME280;59991;52.140;5.428;2023-06-04T00:12:22;102272.22;;;13.48;60.85
72116;BME280;59991;52.140;5.428;2023-06-04T00:12:58;102272.63;;;13.46;60.81
72116;BME280;59991;52.140;5.428;2023-06-04T00:13:36;102270.59;;;13.43;61.08
72116;BME280;59991;52.140;5.428;2023-06-04T00:14:10;102278.03;;;13.43;60.42
72116;BME280;59991;52.140;5.428;2023-06-04T00:14:44;102267.41;;;13.41;60.67
72116;BME280;59991;52.140;5.428;2023-06-04T00:15:17;102281.56;;;13.43;60.26
72116;BME280;59991;52.140;5.428;2023-06-04T00:15:54;102276.44;;;13.42;60.41
72116;BME280;59991;52.140;5.428;2023-06-04T00:16:29;102279.19;;;13.42;60.77
72116;BME280;59991;52.140;5.428;2023-06-04T00:17:03;102273.19;;;13.36;60.75
72116;BME280;59991;52.140;5.428;2023-06-04T00:17:40;102276.34;;;13.38;60.43
72116;BME280;59991;52.140;5.428;2023-06-04T00:18:17;102272.03;;;13.37;60.56
72116;BME280;59991;52.140;5.428;2023-06-04T00:18:54;102278.75;;;13.40;60.86
72116;BME280;59991;52.140;5.428;2023-06-04T00:19:31;102266.91;;;13.36;60.67
72116;BME280;59991;52.140;5.428;2023-06-04T00:20:14;102263.75;;;13.34;61.23
72116;BME280;59991;52.140;5.428;2023-06-04T00:20:51;102268.78;;;13.32;60.83
72116;BME280;59991;52.140;5.428;2023-06-04T00:21:30;102267.16;;;13.27;60.86
72116;BME280;59991;52.140;5.428;2023-06-04T00:22:08;102272.66;;;13.31;61.40
72116;BME280;59991;52.140;5.428;2023-06-04T00:22:45;102265.91;;;13.25;60.90
72116;BME280;59991;52.140;5.428;2023-06-04T00:23:24;102268.66;;;13.25;60.94
72116;BME280;59991;52.140;5.428;2023-06-04T00:24:00;102275.28;;;13.24;61.12
72116;BME280;59991;52.140;5.428;2023-06-04T00:24:38;102264.25;;;13.20;60.94
72116;BME280;59991;52.140;5.428;2023-06-04T00:25:25;102272.09;;;13.22;61.05
72116;BME280;59991;52.140;5.428;2023-06-04T00:25:58;102268.94;;;13.20;61.09
72116;BME280;59991;52.140;5.428;2023-06-04T00:26:40;102272.53;;;13.24;61.18
72116;BME280;59991;52.140;5.428;2023-06-04T00:27:17;102280.34;;;13.22;61.46
72116;BME280;59991;52.140;5.428;2023-06-04T00:27:58;102270.53;;;13.21;61.58
72116;BME280;59991;52.140;5.428;2023-06-04T00:28:32;102268.16;;;13.19;61.90
72116;BME280;59991;52.140;5.428;2023-06-04T00:29:06;102263.72;;;13.14;61.56
72116;BME280;59991;52.140;5.428;2023-06-04T00:29:41;102268.75;;;13.12;61.88
72116;BME280;59991;52.140;5.428;2023-06-04T00:30:18;102262.41;;;13.08;61.52
72116;BME280;59991;52.140;5.428;2023-06-04T00:30:53;102268.75;;;13.12;61.38
72116;BME280;59991;52.140;5.428;2023-06-04T00:31:31;102264.78;;;13.10;61.33
72116;BME280;59991;52.140;5.428;2023-06-04T00:32:05;102263.97;;;13.09;61.94
72116;BME280;59991;52.140;5.428;2023-06-04T00:32:42;102269.09;;;13.11;61.89
72116;BME280;59991;52.140;5.428;2023-06-04T00:33:16;102267.53;;;13.10;61.91
72116;BME280;59991;52.140;5.428;2023-06-04T00:33:53;102260.41;;;13.05;61.61
72116;BME280;59991;52.140;5.428;2023-06-04T00:34:27;102267.88;;;13.08;62.08
72116;BME280;59991;52.140;5.428;2023-06-04T00:35:13;102264.38;;;13.08;61.67
72116;BME280;59991;52.140;5.428;2023-06-04T00:35:55;102264.28;;;13.04;61.08
72116;BME280;59991;52.140;5.428;2023-06-04T00:36:32;102267.03;;;13.04;61.72
72116;BME280;59991;52.140;5.428;2023-06-04T00:37:06;102267.03;;;13.04;61.85
72116;BME280;59991;52.140;5.428;2023-06-04T00:37:44;102266.22;;;13.04;61.15
72116;BME280;59991;52.140;5.428;2023-06-04T00:38:24;102277.28;;;13.07;61.63
72116;BME280;59991;52.140;5.428;2023-06-04T00:39:01;102256.78;;;13.01;61.96
72116;BME280;59991;52.140;5.428;2023-06-04T00:39:38;102264.56;;;12.99;62.02
72116;BME280;59991;52.140;5.428;2023-06-04T00:40:15;102268.91;;;13.00;62.15
72116;BME280;59991;52.140;5.428;2023-06-04T00:40:53;102270.03;;;12.99;61.71
72116;BME280;59991;52.140;5.428;2023-06-04T00:41:31;102260.94;;;12.95;61.96
72116;BME280;59991;52.140;5.428;2023-06-04T00:42:06;102264.03;;;12.94;62.33
72116;BME280;59991;52.140;5.428;2023-06-04T00:42:41;102268.38;;;12.95;61.74
72116;BME280;59991;52.140;5.428;2023-06-04T00:43:16;102262.47;;;12.93;61.93
72116;BME280;59991;52.140;5.428;2023-06-04T00:43:52;102267.56;;;12.94;62.22
72116;BME280;59991;52.140;5.428;2023-06-04T00:44:36;102273.50;;;12.96;62.18
72116;BME280;59991;52.140;5.428;2023-06-04T00:45:10;102265.56;;;12.91;62.12
72116;BME280;59991;52.140;5.428;2023-06-04T00:45:45;102273.75;;;12.91;62.38
72116;BME280;59991;52.140;5.428;2023-06-04T00:46:28;102269.03;;;12.88;62.33
72116;BME280;59991;52.140;5.428;2023-06-04T00:47:03;102264.72;;;12.87;62.25
72116;BME280;59991;52.140;5.428;2023-06-04T00:47:40;102272.91;;;12.87;62.22
72116;BME280;59991;52.140;5.428;2023-06-04T00:48:14;102266.22;;;12.85;62.37
72116;BME280;59991;52.140;5.428;2023-06-04T00:48:46;102266.91;;;12.82;61.97
72116;BME280;59991;52.140;5.428;2023-06-04T00:49:23;102270.88;;;12.84;62.09
72116;BME280;59991;52.140;5.428;2023-06-04T00:50:02;102263.38;;;12.81;62.00
72116;BME280;59991;52.140;5.428;2023-06-04T00:50:42;102261.81;;;12.80;62.40
72116;BME280;59991;52.140;5.428;2023-06-04T00:51:19;102265.78;;;12.83;61.97
72116;BME280;59991;52.140;5.428;2023-06-04T00:51:55;102260.22;;;12.79;62.06
72116;BME280;59991;52.140;5.428;2023-06-04T00:52:31;102274.44;;;12.85;62.62
72116;BME280;59991;52.140;5.428;2023-06-04T00:53:09;102264.53;;;12.80;62.50
72116;BME280;59991;52.140;5.428;2023-06-04T00:53:45;102266.03;;;12.77;62.37
72116;BME280;59991;52.140;5.428;2023-06-04T00:54:19;102267.97;;;12.77;62.29
72116;BME280;59991;52.140;5.428;2023-06-04T00:54:57;102261.63;;;12.73;62.69
72116;BME280;59991;52.140;5.428;2023-06-04T00:55:32;102256.91;;;12.70;62.21
72116;BME280;59991;52.140;5.428;2023-06-04T00:56:06;102269.84;;;12.73;62.54
72116;BME280;59991;52.140;5.428;2023-06-04T00:56:40;102270.28;;;12.75;62.72
72116;BME280;59991;52.140;5.428;2023-06-04T00:57:19;102263.94;;;12.71;62.25
72116;BME280;59991;52.140;5.428;2023-06-04T00:57:51;102265.53;;;12.72;62.69
72116;BME280;59991;52.140;5.428;2023-06-04T00:58:26;102264.72;;;12.71;62.70
72116;BME280;59991;52.140;5.428;2023-06-04T00:59:00;102268.25;;;12.72;62.53
72116;BME280;59991;52.140;5.428;2023-06-04T00:59:39;102272.59;;;12.73;62.96
72116;BME280;59991;52.140;5.428;2023-06-04T01:00:13;102265.09;;;12.70;62.25
72116;BME280;59991;52.140;5.428;2023-06-04T01:00:45;102273.38;;;12.73;62.76
72116;BME280;59991;52.140;5.428;2023-06-04T01:01:31;102278.06;;;12.73;62.34
72116;BME280;59991;52.140;5.428;2023-06-04T01:02:15;102271.44;;;12.74;62.86
72116;BME280;59991;52.140;5.428;2023-06-04T01:02:55;102269.00;;;12.69;62.61
72116;BME280;59991;52.140;5.428;2023-06-04T01:03:38;102268.91;;;12.65;62.51
72116;BME280;59991;52.140;5.428;2023-06-04T01:04:46;102270.13;;;12.68;62.13
72116;BME280;59991;52.140;5.428;2023-06-04T01:05:46;102265.28;;;12.61;62.26
72116;BME280;59991;52.140;5.428;2023-06-04T01:06:31;102268.81;;;12.62;62.92
72116;BME280;59991;52.140;5.428;2023-06-04T01:07:11;102266.69;;;12.55;62.67
72116;BME280;59991;52.140;5.428;2023-06-04T01:07:57;102265.47;;;12.53;62.92
72116;BME280;59991;52.140;5.428;2023-06-04T01:08:32;102273.31;;;12.54;63.17
72116;BME280;59991;52.140;5.428;2023-06-04T01:09:11;102268.56;;;12.51;62.73
72116;BME280;59991;52.140;5.428;2023-06-04T01:09:48;102266.63;;;12.52;62.50
72116;BME280;59991;52.140;5.428;2023-06-04T01:10:23;102270.94;;;12.53;62.89
72116;BME280;59991;52.140;5.428;2023-06-04T01:11:01;102267.78;;;12.51;62.69
72116;BME280;59991;52.140;5.428;2023-06-04T01:11:36;102272.09;;;12.52;63.12
72116;BME280;59991;52.140;5.428;2023-06-04T01:12:13;102267.34;;;12.49;63.16
72116;BME280;59991;52.140;5.428;2023-06-04T01:12:49;102270.44;;;12.47;62.98
72116;BME280;59991;52.140;5.428;2023-06-04T01:13:25;102266.47;;;12.44;62.94
72116;BME280;59991;52.140;5.428;2023-06-04T01:14:00;102266.03;;;12.42;62.82
72116;BME280;59991;52.140;5.428;2023-06-04T01:14:43;102259.75;;;12.42;63.21
72116;BME280;59991;52.140;5.428;2023-06-04T01:15:18;102258.53;;;12.39;62.84
72116;BME280;59991;52.140;5.428;2023-06-04T01:15:53;102259.66;;;12.38;63.17
72116;BME280;59991;52.140;5.428;2023-06-04T01:16:30;102265.50;;;12.37;62.97
72116;BME280;59991;52.140;5.428;2023-06-04T01:17:56;102257.63;;;12.35;62.77
72116;BME280;59991;52.140;5.428;2023-06-04T01:18:41;102256.84;;;12.35;62.99
72116;BME280;59991;52.140;5.428;2023-06-04T01:20:43;102258.44;;;12.36;62.48
72116;BME280;59991;52.140;5.428;2023-06-04T01:21:16;102252.06;;;12.32;63.22
72116;BME280;59991;52.140;5.428;2023-06-04T01:22:04;102262.66;;;12.33;62.95
72116;BME280;59991;52.140;5.428;2023-06-04T01:23:01;102268.13;;;12.33;63.15
72116;BME280;59991;52.140;5.428;2023-06-04T01:23:49;102265.69;;;12.28;63.33
72116;BME280;59991;52.140;5.428;2023-06-04T01:24:35;102266.50;;;12.29;63.50
72116;BME280;59991;52.140;5.428;2023-06-04T01:25:24;102260.56;;;12.27;63.28
72116;BME280;59991;52.140;5.428;2023-06-04T01:25:57;102267.97;;;12.26;63.47
72116;BME280;59991;52.140;5.428;2023-06-04T01:26:31;102265.94;;;12.23;63.81
72116;BME280;59991;52.140;5.428;2023-06-04T01:27:05;102274.25;;;12.27;63.66
72116;BME280;59991;52.140;5.428;2023-06-04T01:27:40;102265.16;;;12.23;63.81
72116;BME280;59991;52.140;5.428;2023-06-04T01:28:16;102261.19;;;12.20;64.04
72116;BME280;59991;52.140;5.428;2023-06-04T01:28:57;102267.44;;;12.21;63.63
72116;BME280;59991;52.140;5.428;2023-06-04T01:29:30;102271.41;;;12.23;63.78
72116;BME280;59991;52.140;5.428;2023-06-04T01:30:09;102270.19;;;12.21;63.56
72116;BME280;59991;52.140;5.428;2023-06-04T01:30:44;102268.16;;;12.18;63.38
72116;BME280;59991;52.140;5.428;2023-06-04T01:31:18;102263.81;;;12.17;63.47
72116;BME280;59991;52.140;5.428;2023-06-04T01:31:54;102270.09;;;12.17;64.25
72116;BME280;59991;52.140;5.428;2023-06-04T01:32:27;102270.78;;;12.14;64.44
72116;BME280;59991;52.140;5.428;2023-06-04T01:33:02;102271.22;;;12.16;63.75
72116;BME280;59991;52.140;5.428;2023-06-04T01:33:46;102276.72;;;12.16;63.96
72116;BME280;59991;52.140;5.428;2023-06-04T01:34:29;102270.78;;;12.14;64.01
72116;BME280;59991;52.140;5.428;2023-06-04T01:35:11;102281.03;;;12.17;64.33
72116;BME280;59991;52.140;5.428;2023-06-04T01:35:47;102273.63;;;12.18;64.19
72116;BME280;59991;52.140;5.428;2023-06-04T01:36:27;102273.13;;;12.12;64.04
72116;BME280;59991;52.140;5.428;2023-06-04T01:37:06;102275.06;;;12.12;64.27
72116;BME280;59991;52.140;5.428;2023-06-04T01:37:43;102269.94;;;12.10;63.57
72116;BME280;59991;52.140;5.428;2023-06-04T01:38:27;102276.59;;;12.13;63.42
72116;BME280;59991;52.140;5.428;2023-06-04T01:39:02;102264.03;;;12.08;64.14
72116;BME280;59991;52.140;5.428;2023-06-04T01:39:39;102272.66;;;12.10;64.00
72116;BME280;59991;52.140;5.428;2023-06-04T01:40:13;102266.75;;;12.08;64.21
72116;BME280;59991;52.140;5.428;2023-06-04T01:40:46;102273.81;;;12.09;63.85
72116;BME280;59991;52.140;5.428;2023-06-04T01:41:23;102265.16;;;12.07;64.01
72116;BME280;59991;52.140;5.428;2023-06-04T01:41:59;102269.03;;;12.06;64.09
72116;BME280;59991;52.140;5.428;2023-06-04T01:42:39;102279.72;;;12.11;64.66
72116;BME280;59991;52.140;5.428;2023-06-04T01:43:10;102269.03;;;12.06;64.38
72116;BME280;59991;52.140;5.428;2023-06-04T01:43:44;102270.19;;;12.05;64.59
72116;BME280;59991;52.140;5.428;2023-06-04T01:44:20;102266.22;;;12.02;64.31
72116;BME280;59991;52.140;5.428;2023-06-04T01:44:59;102264.72;;;12.05;64.56
72116;BME280;59991;52.140;5.428;2023-06-04T01:45:33;102267.81;;;12.03;64.66
72116;BME280;59991;52.140;5.428;2023-06-04T01:46:20;102281.56;;;12.07;64.76
72116;BME280;59991;52.140;5.428;2023-06-04T01:46:54;102272.81;;;12.01;64.67
72116;BME280;59991;52.140;5.428;2023-06-04T01:47:29;102273.28;;;12.03;64.86
72116;BME280;59991;52.140;5.428;2023-06-04T01:48:06;102271.34;;;12.04;64.76
72116;BME280;59991;52.140;5.428;2023-06-04T01:48:43;102270.44;;;12.00;64.77
72116;BME280;59991;52.140;5.428;2023-06-04T01:49:20;102270.69;;;11.95;64.66
72116;BME280;59991;52.140;5.428;2023-06-04T01:50:00;102274.31;;;11.99;64.51
72116;BME280;59991;52.140;5.428;2023-06-04T01:50:32;102275.47;;;11.98;65.05
72116;BME280;59991;52.140;5.428;2023-06-04T01:51:04;102264.38;;;11.91;65.00
72116;BME280;59991;52.140;5.428;2023-06-04T01:51:42;102272.56;;;11.91;64.85
72116;BME280;59991;52.140;5.428;2023-06-04T01:52:18;102273.44;;;11.95;64.58
72116;BME280;59991;52.140;5.428;2023-06-04T01:52:53;102265.94;;;11.92;64.79
72116;BME280;59991;52.140;5.428;2023-06-04T01:53:30;102262.06;;;11.93;64.63
72116;BME280;59991;52.140;5.428;2023-06-04T01:54:05;102272.63;;;11.94;65.19
72116;BME280;59991;52.140;5.428;2023-06-04T01:54:41;102273.78;;;11.93;64.75
72116;BME280;59991;52.140;5.428;2023-06-04T01:55:15;102271.78;;;11.90;65.04
72116;BME280;59991;52.140;5.428;2023-06-04T01:55:57;102265.84;;;11.88;65.01
72116;BME280;59991;52.140;5.428;2023-06-04T01:56:32;102266.31;;;11.90;64.92
72116;BME280;59991;52.140;5.428;2023-06-04T01:57:16;102266.22;;;11.87;65.39
72116;BME280;59991;52.140;5.428;2023-06-04T01:57:52;102266.56;;;11.85;65.53
72116;BME280;59991;52.140;5.428;2023-06-04T01:58:26;102266.56;;;11.85;65.59
72116;BME280;59991;52.140;5.428;2023-06-04T01:59:00;102268.50;;;11.85;65.71
72116;BME280;59991;52.140;5.428;2023-06-04T01:59:35;102268.03;;;11.83;65.80
72116;BME280;59991;52.140;5.428;2023-06-04T02:00:11;102269.63;;;11.84;65.35
72116;BME280;59991;52.140;5.428;2023-06-04T02:00:46;102267.25;;;11.82;65.41
72116;BME280;59991;52.140;5.428;2023-06-04T02:01:18;102266.34;;;11.78;65.50
72116;BME280;59991;52.140;5.428;2023-06-04T02:01:54;102268.28;;;11.77;65.82
72116;BME280;59991;52.140;5.428;2023-06-04T02:02:27;102274.22;;;11.80;65.40
72116;BME280;59991;52.140;5.428;2023-06-04T02:03:01;102270.69;;;11.79;65.48
72116;BME280;59991;52.140;5.428;2023-06-04T02:03:36;102260.75;;;11.74;65.81
72116;BME280;59991;52.140;5.428;2023-06-04T02:04:09;102268.16;;;11.74;65.75
72116;BME280;59991;52.140;5.428;2023-06-04T02:04:44;102271.03;;;11.77;65.75
72116;BME280;59991;52.140;5.428;2023-06-04T02:05:22;102267.81;;;11.75;65.91
72116;BME280;59991;52.140;5.428;2023-06-04T02:05:56;102269.75;;;11.75;65.62
72116;BME280;59991;52.140;5.428;2023-06-04T02:06:33;102266.59;;;11.73;66.04
72116;BME280;59991;52.140;5.428;2023-06-04T02:07:11;102259.56;;;11.72;65.57
72116;BME280;59991;52.140;5.428;2023-06-04T02:07:46;102270.13;;;11.73;65.59
72116;BME280;59991;52.140;5.428;2023-06-04T02:08:19;102272.41;;;11.71;65.66
72116;BME280;59991;52.140;5.428;2023-06-04T02:08:51;102267.31;;;11.70;65.52
72116;BME280;59991;52.140;5.428;2023-06-04T02:09:25;102273.22;;;11.72;65.58
72116;BME280;59991;52.140;5.428;2023-06-04T02:09:57;102270.72;;;11.67;65.99
72116;BME280;59991;52.140;5.428;2023-06-04T02:10:32;102268.78;;;11.67;65.76
72116;BME280;59991;52.140;5.428;2023-06-04T02:11:07;102270.72;;;11.67;65.79
72116;BME280;59991;52.140;5.428;2023-06-04T02:11:43;102268.34;;;11.65;66.26
72116;BME280;59991;52.140;5.428;2023-06-04T02:12:17;102268.25;;;11.62;66.05
72116;BME280;59991;52.140;5.428;2023-06-04T02:13:00;102261.53;;;11.59;65.78
72116;BME280;59991;52.140;5.428;2023-06-04T02:13:36;102275.19;;;11.59;66.00
72116;BME280;59991;52.140;5.428;2023-06-04T02:14:11;102271.75;;;11.62;66.47
72116;BME280;59991;52.140;5.428;2023-06-04T02:14:45;102260.28;;;11.57;66.42
72116;BME280;59991;52.140;5.428;2023-06-04T02:15:22;102259.50;;;11.56;66.17
72116;BME280;59991;52.140;5.428;2023-06-04T02:15:56;102275.19;;;11.59;66.27
72116;BME280;59991;52.140;5.428;2023-06-04T02:16:30;102277.56;;;11.61;66.90
72116;BME280;59991;52.140;5.428;2023-06-04T02:17:05;102272.81;;;11.58;66.81
72116;BME280;59991;52.140;5.428;2023-06-04T02:17:43;102263.03;;;11.57;66.50
72116;BME280;59991;52.140;5.428;2023-06-04T02:18:18;102270.41;;;11.56;66.61
72116;BME280;59991;52.140;5.428;2023-06-04T02:18:53;102270.41;;;11.56;66.51
72116;BME280;59991;52.140;5.428;2023-06-04T02:19:25;102266.91;;;11.56;65.94
72116;BME280;59991;52.140;5.428;2023-06-04T02:20:00;102268.41;;;11.53;66.39
72116;BME280;59991;52.140;5.428;2023-06-04T02:20:35;102267.97;;;11.51;66.40
72116;BME280;59991;52.140;5.428;2023-06-04T02:21:06;102261.25;;;11.49;66.69
72116;BME280;59991;52.140;5.428;2023-06-04T02:21:38;102258.75;;;11.43;66.13
72116;BME280;59991;52.140;5.428;2023-06-04T02:22:14;102266.28;;;11.47;66.85
72116;BME280;59991;52.140;5.428;2023-06-04T02:22:51;102264.22;;;11.43;66.35
72116;BME280;59991;52.140;5.428;2023-06-04T02:23:22;102261.16;;;11.45;67.10
72116;BME280;59991;52.140;5.428;2023-06-04T02:23:57;102269.78;;;11.47;66.22
72116;BME280;59991;52.140;5.428;2023-06-04T02:24:30;102270.94;;;11.46;67.19
72116;BME280;59991;52.140;5.428;2023-06-04T02:25:02;102266.16;;;11.43;66.64
72116;BME280;59991;52.140;5.428;2023-06-04T02:25:39;102271.63;;;11.43;66.97
72116;BME280;59991;52.140;5.428;2023-06-04T02:26:18;102266.84;;;11.40;67.28
72116;BME280;59991;52.140;5.428;2023-06-04T02:26:55;102264.13;;;11.40;67.03
72116;BME280;59991;52.140;5.428;2023-06-04T02:27:40;102275.94;;;11.44;66.88
72116;BME280;59991;52.140;5.428;2023-06-04T02:28:12;102265.25;;;11.39;66.92
72116;BME280;59991;52.140;5.428;2023-06-04T02:28:46;102272.66;;;11.38;67.00
72116;BME280;59991;52.140;5.428;2023-06-04T02:29:20;102268.34;;;11.37;67.21
72116;BME280;59991;52.140;5.428;2023-06-04T02:29:53;102270.03;;;11.42;67.22
72116;BME280;59991;52.140;5.428;2023-06-04T02:30:35;102278.22;;;11.42;67.20
72116;BME280;59991;52.140;5.428;2023-06-04T02:31:10;102269.94;;;11.38;66.70
72116;BME280;59991;52.140;5.428;2023-06-04T02:31:55;102264.41;;;11.35;67.08
72116;BME280;59991;52.140;5.428;2023-06-04T02:32:27;102267.47;;;11.33;67.11
72116;BME280;59991;52.140;5.428;2023-06-04T02:33:00;102272.22;;;11.36;67.09
72116;BME280;59991;52.140;5.428;2023-06-04T02:33:35;102266.56;;;11.29;66.81
72116;BME280;59991;52.140;5.428;2023-06-04T02:34:06;102264.19;;;11.28;66.89
72116;BME280;59991;52.140;5.428;2023-06-04T02:34:38;102276.00;;;11.32;67.15
72116;BME280;59991;52.140;5.428;2023-06-04T02:35:10;102272.03;;;11.29;67.39
72116;BME280;59991;52.140;5.428;2023-06-04T02:35:42;102273.50;;;11.27;66.98
72116;BME280;59991;52.140;5.428;2023-06-04T02:36:17;102262.16;;;11.25;67.31
72116;BME280;59991;52.140;5.428;2023-06-04T02:36:51;102261.69;;;11.23;67.90
72116;BME280;59991;52.140;5.428;2023-06-04T02:37:30;102271.81;;;11.22;67.53
72116;BME280;59991;52.140;5.428;2023-06-04T02:38:02;102265.56;;;11.22;67.41
72116;BME280;59991;52.140;5.428;2023-06-04T02:38:38;102267.25;;;11.26;67.44
72116;BME280;59991;52.140;5.428;2023-06-04T02:39:10;102264.88;;;11.25;67.19
72116;BME280;59991;52.140;5.428;2023-06-04T02:39:44;102259.31;;;11.21;67.04
72116;BME280;59991;52.140;5.428;2023-06-04T02:40:19;102274.22;;;11.24;67.51
72116;BME280;59991;52.140;5.428;2023-06-04T02:40:51;102264.75;;;11.21;67.55
72116;BME280;59991;52.140;5.428;2023-06-04T02:41:26;102265.56;;;11.22;67.73
72116;BME280;59991;52.140;5.428;2023-06-04T02:42:04;102263.88;;;11.17;67.73
72116;BME280;59991;52.140;5.428;2023-06-04T02:42:35;102265.91;;;11.20;67.50
72116;BME280;59991;52.140;5.428;2023-06-04T02:43:11;102263.19;;;11.20;67.86
72116;BME280;59991;52.140;5.428;2023-06-04T02:43:44;102272.16;;;11.21;67.67
72116;BME280;59991;52.140;5.428;2023-06-04T02:44:21;102261.50;;;11.16;67.92
72116;BME280;59991;52.140;5.428;2023-06-04T02:44:58;102269.44;;;11.21;67.13
72116;BME280;59991;52.140;5.428;2023-06-04T02:45:32;102272.16;;;11.21;67.39
72116;BME280;59991;52.140;5.428;2023-06-04T02:46:05;102272.84;;;11.18;66.95
72116;BME280;59991;52.140;5.428;2023-06-04T02:46:43;102266.16;;;11.15;67.86
72116;BME280;59991;52.140;5.428;2023-06-04T02:47:16;102266.50;;;11.14;67.56
72116;BME280;59991;52.140;5.428;2023-06-04T02:47:50;102260.16;;;11.10;67.50
72116;BME280;59991;52.140;5.428;2023-06-04T02:48:27;102262.53;;;11.11;67.60
72116;BME280;59991;52.140;5.428;2023-06-04T02:49:01;102270.03;;;11.14;67.46
72116;BME280;59991;52.140;5.428;2023-06-04T02:49:33;102268.34;;;11.10;68.22
72116;BME280;59991;52.140;5.428;2023-06-04T02:50:07;102268.34;;;11.10;68.12
72116;BME280;59991;52.140;5.428;2023-06-04T02:50:41;102266.75;;;11.08;68.03
72116;BME280;59991;52.140;5.428;2023-06-04T02:51:13;102262.78;;;11.06;67.98
72116;BME280;59991;52.140;5.428;2023-06-04T02:51:50;102263.22;;;11.08;67.92
72116;BME280;59991;52.140;5.428;2023-06-04T02:52:24;102263.13;;;11.04;68.10
72116;BME280;59991;52.140;5.428;2023-06-04T02:52:59;102266.28;;;11.06;67.92
72116;BME280;59991;52.140;5.428;2023-06-04T02:53:37;102260.38;;;11.04;67.92
72116;BME280;59991;52.140;5.428;2023-06-04T02:54:09;102259.94;;;11.02;67.76
72116;BME280;59991;52.140;5.428;2023-06-04T02:54:41;102261.06;;;11.01;67.90
72116;BME280;59991;52.140;5.428;2023-06-04T02:55:16;102265.84;;;11.04;68.01
72116;BME280;59991;52.140;5.428;2023-06-04T02:55:50;102259.13;;;11.02;68.26
72116;BME280;59991;52.140;5.428;2023-06-04T02:56:24;102266.97;;;11.03;67.88
72116;BME280;59991;52.140;5.428;2023-06-04T02:57:06;102260.38;;;11.04;67.73
72116;BME280;59991;52.140;5.428;2023-06-04T02:57:42;102257.09;;;10.99;67.88
72116;BME280;59991;52.140;5.428;2023-06-04T02:58:16;102263.00;;;11.01;67.88
72116;BME280;59991;52.140;5.428;2023-06-04T02:58:52;102263.00;;;11.01;67.49
72116;BME280;59991;52.140;5.428;2023-06-04T02:59:27;102263.34;;;10.99;67.94
72116;BME280;59991;52.140;5.428;2023-06-04T03:00:02;102269.25;;;11.01;67.80
72116;BME280;59991;52.140;5.428;2023-06-04T03:00:49;102264.94;;;11.00;67.97
72116;BME280;59991;52.140;5.428;2023-06-04T03:01:26;102261.75;;;10.98;67.50
72116;BME280;59991;52.140;5.428;2023-06-04T03:01:58;102260.88;;;10.94;67.84
72116;BME280;59991;52.140;5.428;2023-06-04T03:02:33;102263.28;;;10.96;68.10
72116;BME280;59991;52.140;5.428;2023-06-04T03:03:05;102261.22;;;10.93;67.86
72116;BME280;59991;52.140;5.428;2023-06-04T03:03:39;102261.22;;;10.93;67.95
72116;BME280;59991;52.140;5.428;2023-06-04T03:04:11;102262.03;;;10.93;67.88
72116;BME280;59991;52.140;5.428;2023-06-04T03:04:47;102264.75;;;10.93;68.13
72116;BME280;59991;52.140;5.428;2023-06-04T03:05:22;102269.06;;;10.94;68.51
72116;BME280;59991;52.140;5.428;2023-06-04T03:06:01;102265.19;;;10.95;68.23
72116;BME280;59991;52.140;5.428;2023-06-04T03:06:35;102261.56;;;10.91;68.43
72116;BME280;59991;52.140;5.428;2023-06-04T03:07:09;102268.63;;;10.92;68.31
72116;BME280;59991;52.140;5.428;2023-06-04T03:07:47;102269.75;;;10.91;68.63
72116;BME280;59991;52.140;5.428;2023-06-04T03:08:23;102263.84;;;10.89;68.47
72116;BME280;59991;52.140;5.428;2023-06-04T03:08:56;102265.44;;;10.90;68.50
72116;BME280;59991;52.140;5.428;2023-06-04T03:09:31;102263.50;;;10.91;68.51
72116;BME280;59991;52.140;5.428;2023-06-04T03:10:05;102276.34;;;10.90;68.18
72116;BME280;59991;52.140;5.428;2023-06-04T03:10:37;102267.72;;;10.88;68.76
72116;BME280;59991;52.140;5.428;2023-06-04T03:11:09;102268.84;;;10.87;68.74
72116;BME280;59991;52.140;5.428;2023-06-04T03:11:42;102256.22;;;10.83;68.08
72116;BME280;59991;52.140;5.428;2023-06-04T03:12:23;102272.81;;;10.90;68.10
72116;BME280;59991;52.140;5.428;2023-06-04T03:12:54;102265.66;;;10.85;68.07